createdAt,value
2023-01-15T00:02:25.495Z,22.55
2023-01-15T00:04:53.111Z,23.67
2023-01-15T00:07:20.720Z,23.52
2023-01-15T00:09:48.307Z,22.67
2023-01-15T00:12:15.899Z,23.42
2023-01-15T00:14:43.546Z,23.50
2023-01-15T00:17:11.097Z,22.38
2023-01-15T00:19:38.665Z,21.80
2023-01-15T00:22:06.257Z,20.85
2023-01-15T00:24:52.465Z,19.98
2023-01-15T00:27:38.780Z,19.02
2023-01-15T00:30:07.472Z,20.10
2023-01-15T00:32:38.006Z,20.08
2023-01-15T00:35:05.907Z,21.20
2023-01-15T00:37:34.121Z,19.70
2023-01-15T00:40:03.877Z,20.25
2023-01-15T00:42:31.492Z,21.17
2023-01-15T00:44:59.181Z,19.67
2023-01-15T00:47:27.217Z,20.05
2023-01-15T00:49:54.780Z,20.27
2023-01-15T00:52:22.393Z,19.30
2023-01-15T00:54:50.069Z,19.75
2023-01-15T00:57:17.661Z,20.15
2023-01-15T00:59:45.800Z,17.98
2023-01-15T01:02:13.644Z,17.55
2023-01-15T01:04:42.574Z,16.95
2023-01-15T01:07:10.475Z,16.48
2023-01-15T01:09:38.050Z,16.08
2023-01-15T01:12:05.793Z,16.23
2023-01-15T01:14:33.589Z,15.98
2023-01-15T01:17:01.273Z,16.48
2023-01-15T01:19:28.922Z,17.00
2023-01-15T01:21:56.548Z,18.88
2023-01-15T01:24:24.952Z,16.67
2023-01-15T01:26:54.606Z,18.67
2023-01-15T01:29:22.955Z,18.35
2023-01-15T01:31:51.406Z,17.40
2023-01-15T01:34:19.451Z,17.45
2023-01-15T01:36:47.327Z,17.40
2023-01-15T01:39:17.305Z,18.70
2023-01-15T01:41:45.567Z,18.40
2023-01-15T01:44:31.998Z,17.25
2023-01-15T01:47:07.622Z,17.52
2023-01-15T01:49:36.148Z,17.23
2023-01-15T01:52:07.275Z,18.92
2023-01-15T01:54:36.149Z,16.38
2023-01-15T01:57:05.240Z,17.55
2023-01-15T01:59:33.454Z,18.58
2023-01-15T02:02:01.396Z,19.45
2023-01-15T02:04:30.204Z,18.05
2023-01-15T02:06:59.507Z,19.23
2023-01-15T02:09:27.371Z,18.25
2023-01-15T02:11:57.214Z,18.88
2023-01-15T02:14:37.307Z,17.48
2023-01-15T02:17:08.068Z,18.23
2023-01-15T02:19:46.315Z,17.88
2023-01-15T02:22:23.109Z,17.73
2023-01-15T02:25:00.862Z,16.77
2023-01-15T02:27:28.781Z,16.20
2023-01-15T02:30:02.525Z,17.55
2023-01-15T02:32:46.420Z,16.67
2023-01-15T02:35:18.867Z,16.83
2023-01-15T02:37:49.470Z,16.83
2023-01-15T02:40:19.725Z,17.05
2023-01-15T02:42:48.477Z,16.75
2023-01-15T02:45:27.116Z,17.17
2023-01-15T02:47:57.096Z,17.42
2023-01-15T02:50:31.076Z,17.60
2023-01-15T02:53:03.959Z,16.90
2023-01-15T02:55:38.056Z,17.30
2023-01-15T02:58:08.544Z,16.90
2023-01-15T03:00:37.935Z,16.58
2023-01-15T03:03:14.546Z,16.85
2023-01-15T03:06:11.668Z,17.50
2023-01-15T03:08:40.178Z,16.48
2023-01-15T03:11:08.340Z,16.20
2023-01-15T03:13:42.571Z,16.27
2023-01-15T03:16:28.947Z,16.58
2023-01-15T03:18:57.638Z,16.20
2023-01-15T03:21:31.415Z,16.25
2023-01-15T03:26:27.908Z,16.33
2023-01-15T03:28:56.721Z,16.17
2023-01-15T03:31:25.045Z,15.95
2023-01-15T03:33:52.738Z,15.63
2023-01-15T03:36:22.305Z,14.95
2023-01-15T03:38:51.758Z,16.48
2023-01-15T03:41:53.971Z,15.70
2023-01-15T03:44:34.853Z,14.20
2023-01-15T03:47:12.391Z,14.60
2023-01-15T03:49:48.588Z,15.32
2023-01-15T03:52:32.697Z,14.57
2023-01-15T03:55:00.330Z,15.77
2023-01-15T03:57:36.932Z,14.90
2023-01-15T04:00:09.662Z,15.00
2023-01-15T04:02:44.636Z,15.40
2023-01-15T04:05:13.484Z,15.35
2023-01-15T04:07:41.345Z,15.10
2023-01-15T04:10:10.154Z,14.73
2023-01-15T04:12:38.367Z,14.80
2023-01-15T04:15:11.893Z,15.43
2023-01-15T04:17:39.894Z,14.98
2023-01-15T04:20:07.929Z,15.23
2023-01-15T04:22:36.550Z,13.90
2023-01-15T04:25:04.915Z,15.52
2023-01-15T04:27:32.729Z,15.13
2023-01-15T04:30:00.417Z,14.23
2023-01-15T04:32:28.030Z,14.40
2023-01-15T04:34:55.742Z,15.05
2023-01-15T04:37:23.329Z,14.40
2023-01-15T04:39:50.997Z,15.30
2023-01-15T04:42:37.362Z,16.20
2023-01-15T04:45:05.217Z,14.75
2023-01-15T04:47:32.835Z,15.90
2023-01-15T04:50:00.441Z,14.75
2023-01-15T04:52:28.144Z,15.13
2023-01-15T04:54:56.185Z,14.45
2023-01-15T04:57:24.196Z,14.60
2023-01-15T04:59:52.312Z,15.05
2023-01-15T05:02:19.995Z,14.82
2023-01-15T05:04:47.744Z,16.02
2023-01-15T05:07:15.437Z,14.85
2023-01-15T05:09:43.264Z,14.93
2023-01-15T05:12:10.873Z,13.48
2023-01-15T05:14:38.472Z,14.63
2023-01-15T05:17:06.083Z,13.95
2023-01-15T05:19:33.725Z,13.90
2023-01-15T05:22:01.321Z,13.60
2023-01-15T05:24:28.968Z,12.57
2023-01-15T05:26:58.170Z,12.88
2023-01-15T05:29:25.736Z,12.95
2023-01-15T05:31:53.397Z,13.43
2023-01-15T05:34:20.984Z,13.15
2023-01-15T05:36:48.597Z,13.30
2023-01-15T05:39:16.379Z,12.70
2023-01-15T05:41:50.184Z,12.43
2023-01-15T05:44:20.725Z,12.20
2023-01-15T05:46:48.942Z,13.15
2023-01-15T05:49:18.416Z,12.95
2023-01-15T05:51:46.247Z,12.68
2023-01-15T05:54:15.344Z,13.30
2023-01-15T05:56:43.611Z,13.68
2023-01-15T05:59:11.191Z,12.88
2023-01-15T06:01:39.004Z,13.02
2023-01-15T06:04:07.104Z,13.43
2023-01-15T06:06:35.951Z,12.32
2023-01-15T06:09:05.076Z,13.00
2023-01-15T06:11:32.927Z,11.27
2023-01-15T06:14:00.590Z,11.90
2023-01-15T06:16:28.285Z,12.90
2023-01-15T06:18:55.927Z,12.82
2023-01-15T06:21:23.495Z,13.00
2023-01-15T06:23:53.597Z,13.40
2023-01-15T06:26:21.417Z,14.00
2023-01-15T06:28:50.385Z,13.10
2023-01-15T06:31:20.255Z,13.98
2023-01-15T06:33:48.363Z,13.82
2023-01-15T06:36:17.543Z,14.57
2023-01-15T06:38:45.571Z,14.45
2023-01-15T06:41:33.512Z,13.75
2023-01-15T06:44:20.080Z,14.65
2023-01-15T06:47:07.929Z,14.25
2023-01-15T06:49:36.374Z,15.48
2023-01-15T06:52:04.418Z,16.45
2023-01-15T06:54:32.326Z,17.20
2023-01-15T06:56:59.932Z,16.98
2023-01-15T06:59:27.617Z,16.52
2023-01-15T07:01:55.356Z,17.60
2023-01-15T07:04:23.088Z,16.77
2023-01-15T07:06:50.700Z,16.83
2023-01-15T07:09:18.514Z,18.88
2023-01-15T07:11:52.046Z,17.23
2023-01-15T07:14:21.059Z,17.33
2023-01-15T07:16:49.004Z,17.60
2023-01-15T07:19:17.134Z,16.85
2023-01-15T07:21:45.294Z,16.70
2023-01-15T07:24:13.121Z,17.10
2023-01-15T07:26:40.789Z,18.40
2023-01-15T07:29:08.471Z,19.85
2023-01-15T07:31:36.186Z,19.13
2023-01-15T07:34:04.113Z,18.80
2023-01-15T07:36:31.883Z,19.17
2023-01-15T07:38:59.590Z,17.77
2023-01-15T07:41:45.727Z,16.42
2023-01-15T07:44:33.574Z,18.30
2023-01-15T07:47:20.176Z,18.48
2023-01-15T07:49:49.029Z,17.80
2023-01-15T07:52:17.854Z,17.52
2023-01-15T07:54:46.046Z,18.05
2023-01-15T07:57:15.850Z,19.17
2023-01-15T07:59:43.657Z,20.13
2023-01-15T08:02:12.115Z,21.02
2023-01-15T08:04:40.226Z,21.05
2023-01-15T08:07:08.469Z,17.40
2023-01-15T08:09:36.430Z,19.05
2023-01-15T08:12:23.083Z,19.98
2023-01-15T08:15:09.514Z,19.98
2023-01-15T08:17:37.763Z,20.10
2023-01-15T08:20:06.598Z,20.13
2023-01-15T08:22:34.215Z,20.40
2023-01-15T08:25:01.795Z,20.63
2023-01-15T08:27:31.351Z,18.60
2023-01-15T08:29:59.780Z,18.48
2023-01-15T08:32:27.394Z,21.48
2023-01-15T08:34:55.063Z,25.40
2023-01-15T08:37:25.273Z,18.77
2023-01-15T08:39:53.286Z,18.30
2023-01-15T08:42:21.499Z,18.08
2023-01-15T08:44:49.523Z,19.42
2023-01-15T08:47:18.550Z,23.33
2023-01-15T08:49:48.154Z,18.15
2023-01-15T08:52:15.972Z,17.88
2023-01-15T08:54:43.723Z,18.75
2023-01-15T08:57:12.555Z,19.27
2023-01-15T08:59:43.028Z,19.55
2023-01-15T09:02:15.154Z,18.80
2023-01-15T09:04:43.035Z,20.27
2023-01-15T09:07:10.980Z,21.35
2023-01-15T09:09:38.668Z,23.42
2023-01-15T09:12:06.491Z,22.55
2023-01-15T09:14:58.209Z,20.95
2023-01-15T09:17:21.720Z,22.38
2023-01-15T09:19:49.285Z,20.88
2023-01-15T09:22:16.870Z,26.38
2023-01-15T09:24:44.689Z,26.42
2023-01-15T09:27:13.008Z,27.05
2023-01-15T09:29:40.707Z,25.70
2023-01-15T09:32:09.906Z,28.13
2023-01-15T09:34:37.643Z,23.30
2023-01-15T09:37:05.251Z,23.92
2023-01-15T09:39:32.874Z,24.77
2023-01-15T09:42:07.948Z,26.42
2023-01-15T09:44:38.340Z,24.10
2023-01-15T09:47:10.119Z,23.92
2023-01-15T09:50:01.587Z,24.50
2023-01-15T09:52:47.100Z,24.60
2023-01-15T09:55:29.474Z,24.27
2023-01-15T09:57:58.745Z,25.52
2023-01-15T10:00:27.942Z,23.58
2023-01-15T10:02:55.583Z,25.00
2023-01-15T10:05:23.556Z,25.13
2023-01-15T10:08:02.879Z,23.63
2023-01-15T10:10:34.648Z,24.20
2023-01-15T10:13:09.302Z,22.08
2023-01-15T10:15:38.852Z,21.85
2023-01-15T10:18:09.744Z,22.00
2023-01-15T10:20:40.192Z,21.58
2023-01-15T10:23:26.759Z,20.15
2023-01-15T10:26:03.705Z,20.58
2023-01-15T10:28:32.427Z,19.92
2023-01-15T10:31:07.738Z,19.33
2023-01-15T10:33:35.305Z,19.13
2023-01-15T10:36:10.424Z,19.05
2023-01-15T10:38:54.587Z,19.50
2023-01-15T10:41:22.244Z,19.73
2023-01-15T10:44:25.555Z,19.20
2023-01-15T10:47:00.971Z,20.08
2023-01-15T10:49:29.492Z,17.60
2023-01-15T10:52:04.823Z,20.13
2023-01-15T10:54:35.465Z,18.67
2023-01-15T10:57:12.203Z,18.52
2023-01-15T10:59:49.324Z,19.48
2023-01-15T11:02:26.205Z,18.40
2023-01-15T11:04:54.373Z,18.98
2023-01-15T11:07:35.299Z,19.75
2023-01-15T11:10:05.054Z,20.65
2023-01-15T11:12:52.851Z,20.55
2023-01-15T11:15:43.496Z,21.70
2023-01-15T11:18:47.252Z,20.90
2023-01-15T11:21:19.281Z,21.35
2023-01-15T11:23:47.455Z,20.80
2023-01-15T11:26:26.293Z,23.08
2023-01-15T11:28:54.344Z,22.65
2023-01-15T11:31:22.132Z,21.80
2023-01-15T11:34:00.671Z,23.50
2023-01-15T11:36:29.165Z,22.05
2023-01-15T11:38:56.868Z,23.83
2023-01-15T11:41:48.488Z,23.08
2023-01-15T11:44:35.658Z,23.20
2023-01-15T11:47:22.393Z,21.42
2023-01-15T11:50:11.906Z,22.65
2023-01-15T11:52:44.189Z,23.73
2023-01-15T11:55:13.506Z,23.58
2023-01-15T11:57:41.403Z,23.40
2023-01-15T12:00:21.670Z,23.65
2023-01-15T12:02:50.238Z,24.23
2023-01-15T12:05:19.405Z,24.20
2023-01-15T12:07:48.549Z,24.70
2023-01-15T12:10:40.228Z,24.33
2023-01-15T12:13:17.327Z,27.42
2023-01-15T12:15:55.285Z,50.85
2023-01-15T12:18:29.938Z,40.22
2023-01-15T12:21:04.867Z,28.33
2023-01-15T12:23:35.301Z,27.10
2023-01-15T12:26:08.659Z,26.90
2023-01-15T12:28:38.835Z,27.17
2023-01-15T12:31:12.066Z,28.90
2023-01-15T12:36:07.473Z,25.38
2023-01-15T12:38:45.045Z,54.10
2023-01-15T12:41:14.861Z,155.98
2023-01-15T12:44:03.481Z,35.15
2023-01-15T12:46:32.683Z,25.35
2023-01-15T12:49:06.855Z,24.80
2023-01-15T12:51:46.309Z,24.15
2023-01-15T12:54:14.978Z,23.10
2023-01-15T12:56:55.189Z,23.60
2023-01-15T12:59:25.557Z,23.95
2023-01-15T13:01:53.203Z,22.27
2023-01-15T13:04:23.579Z,23.48
2023-01-15T13:07:02.088Z,25.35
2023-01-15T13:09:38.772Z,23.27
2023-01-15T13:12:13.573Z,23.80
2023-01-15T13:14:41.528Z,26.00
2023-01-15T13:17:09.092Z,25.83
2023-01-15T13:19:46.510Z,25.52
2023-01-15T13:22:16.265Z,25.45
2023-01-15T13:24:56.216Z,26.00
2023-01-15T13:27:42.544Z,26.75
2023-01-15T13:30:10.137Z,26.75
2023-01-15T13:32:43.293Z,26.38
2023-01-15T13:35:30.215Z,25.55
2023-01-15T13:38:00.308Z,26.70
2023-01-15T13:40:29.581Z,25.75
2023-01-15T13:42:57.345Z,26.27
2023-01-15T13:45:27.867Z,26.38
2023-01-15T13:48:06.776Z,27.10
2023-01-15T13:50:37.295Z,27.95
2023-01-15T13:53:13.892Z,27.02
2023-01-15T13:55:43.678Z,28.45
2023-01-15T13:58:18.353Z,28.27
2023-01-15T14:00:46.703Z,28.23
2023-01-15T14:03:31.058Z,29.27
2023-01-15T14:06:00.551Z,29.90
2023-01-15T14:08:29.554Z,35.13
2023-01-15T14:10:58.037Z,32.95
2023-01-15T14:13:31.764Z,29.73
2023-01-15T14:16:08.916Z,31.42
2023-01-15T14:18:56.980Z,31.20
2023-01-15T14:21:43.378Z,31.08
2023-01-15T14:24:11.010Z,31.23
2023-01-15T14:26:47.613Z,33.20
2023-01-15T14:29:44.812Z,32.55
2023-01-15T14:32:12.411Z,31.55
2023-01-15T14:34:40.245Z,34.13
2023-01-15T14:37:22.864Z,33.60
2023-01-15T14:39:52.232Z,51.83
2023-01-15T14:42:41.272Z,56.60
2023-01-15T14:45:11.894Z,34.10
2023-01-15T14:47:47.584Z,30.67
2023-01-15T14:50:28.058Z,36.25
2023-01-15T14:52:57.183Z,32.60
2023-01-15T14:55:25.410Z,35.67
2023-01-15T14:57:55.812Z,30.77
2023-01-15T15:00:25.170Z,30.05
2023-01-15T15:02:52.960Z,31.55
2023-01-15T15:05:22.704Z,31.52
2023-01-15T15:07:55.276Z,30.05
2023-01-15T15:10:27.568Z,30.02
2023-01-15T15:12:55.863Z,28.55
2023-01-15T15:15:26.596Z,29.77
2023-01-15T15:18:03.215Z,30.30
2023-01-15T15:20:31.501Z,32.30
2023-01-15T15:23:04.876Z,31.17
2023-01-15T15:25:37.568Z,30.63
2023-01-15T15:28:07.459Z,32.08
2023-01-15T15:30:36.796Z,30.58
2023-01-15T15:33:05.807Z,30.38
2023-01-15T15:35:34.040Z,31.38
2023-01-15T15:38:04.260Z,30.00
2023-01-15T15:40:35.122Z,30.83
2023-01-15T15:43:24.382Z,30.83
2023-01-15T15:46:14.752Z,28.50
2023-01-15T15:48:45.686Z,31.85
2023-01-15T15:51:22.493Z,32.45
2023-01-15T15:53:50.132Z,32.40
2023-01-15T15:56:18.508Z,31.73
2023-01-15T15:58:47.012Z,31.42
2023-01-15T16:01:14.983Z,29.70
2023-01-15T16:03:49.183Z,31.92
2023-01-15T16:06:25.985Z,32.08
2023-01-15T16:08:54.553Z,32.97
2023-01-15T16:11:24.738Z,31.25
2023-01-15T16:13:53.291Z,29.50
2023-01-15T16:16:21.657Z,30.65
2023-01-15T16:18:50.970Z,30.60
2023-01-15T16:21:33.047Z,29.42
2023-01-15T16:24:04.710Z,29.67
2023-01-15T16:26:35.226Z,31.92
2023-01-15T16:29:04.715Z,31.38
2023-01-15T16:31:35.933Z,33.20
2023-01-15T16:34:04.110Z,36.17
2023-01-15T16:36:39.322Z,32.92
2023-01-15T16:39:07.890Z,28.73
2023-01-15T16:41:42.336Z,30.52
2023-01-15T16:44:25.045Z,30.02
2023-01-15T16:46:58.001Z,21.63
2023-01-15T16:49:27.233Z,28.25
2023-01-15T16:51:57.126Z,27.20
2023-01-15T16:54:30.928Z,27.48
2023-01-15T16:57:06.448Z,27.63
2023-01-15T16:59:35.149Z,26.33
2023-01-15T17:02:22.296Z,27.05
2023-01-15T17:04:51.856Z,26.73
2023-01-15T17:07:19.536Z,29.88
2023-01-15T17:09:55.017Z,28.38
2023-01-15T17:12:28.207Z,39.65
2023-01-15T17:17:23.500Z,29.70
2023-01-15T17:19:52.278Z,32.40
2023-01-15T17:22:25.703Z,33.58
2023-01-15T17:24:54.300Z,33.85
2023-01-15T17:27:21.961Z,32.88
2023-01-15T17:29:49.813Z,32.63
2023-01-15T17:32:21.177Z,31.15
2023-01-15T17:34:49.099Z,33.08
2023-01-15T17:37:16.686Z,34.25
2023-01-15T17:39:44.348Z,34.58
2023-01-15T17:42:16.079Z,34.17
2023-01-15T17:44:43.757Z,32.95
2023-01-15T17:47:11.523Z,32.63
2023-01-15T17:49:39.624Z,35.83
2023-01-15T17:52:08.774Z,35.90
2023-01-15T17:54:54.971Z,34.85
2023-01-15T17:57:41.406Z,34.65
2023-01-15T18:00:29.775Z,34.80
2023-01-15T18:03:16.140Z,35.53
2023-01-15T18:05:44.407Z,33.70
2023-01-15T18:08:12.578Z,33.15
2023-01-15T18:10:40.222Z,33.15
2023-01-15T18:13:08.664Z,33.20
2023-01-15T18:15:36.486Z,34.05
2023-01-15T18:18:04.246Z,35.03
2023-01-15T18:20:32.950Z,35.00
2023-01-15T18:23:00.549Z,34.05
2023-01-15T18:25:28.215Z,33.88
2023-01-15T18:27:55.798Z,35.17
2023-01-15T18:30:23.686Z,37.90
2023-01-15T18:32:51.260Z,38.00
2023-01-15T18:35:19.506Z,37.17
2023-01-15T18:37:48.493Z,35.42
2023-01-15T18:40:16.147Z,33.88
2023-01-15T18:43:02.376Z,34.90
2023-01-15T18:45:48.509Z,32.17
2023-01-15T18:48:16.113Z,33.80
2023-01-15T18:50:43.705Z,31.33
2023-01-15T18:53:12.979Z,30.83
2023-01-15T18:55:40.556Z,30.05
2023-01-15T18:58:08.203Z,28.65
2023-01-15T19:00:36.107Z,28.98
2023-01-15T19:03:07.093Z,26.67
2023-01-15T19:05:34.680Z,28.10
2023-01-15T19:08:02.390Z,28.77
2023-01-15T19:10:30.013Z,26.88
2023-01-15T19:12:57.664Z,28.05
2023-01-15T19:15:43.898Z,26.40
2023-01-15T19:18:30.698Z,26.27
2023-01-15T19:20:58.470Z,27.08
2023-01-15T19:23:26.047Z,26.02
2023-01-15T19:25:53.659Z,26.77
2023-01-15T19:28:21.875Z,26.23
2023-01-15T19:31:09.852Z,26.60
2023-01-15T19:33:37.631Z,25.75
2023-01-15T19:36:05.474Z,25.67
2023-01-15T19:38:36.911Z,27.73
2023-01-15T19:41:28.323Z,25.40
2023-01-15T19:44:15.085Z,26.02
2023-01-15T19:47:01.491Z,25.00
2023-01-15T19:49:51.281Z,26.77
2023-01-15T19:52:38.243Z,25.52
2023-01-15T19:55:08.808Z,24.35
2023-01-15T19:57:37.060Z,27.42
2023-01-15T20:00:06.439Z,27.08
2023-01-15T20:02:37.437Z,26.02
2023-01-15T20:05:06.389Z,26.23
2023-01-15T20:07:34.075Z,25.17
2023-01-15T20:10:02.707Z,25.60
2023-01-15T20:12:49.082Z,26.02
2023-01-15T20:15:17.465Z,24.55
2023-01-15T20:17:45.999Z,24.85
2023-01-15T20:20:13.894Z,25.98
2023-01-15T20:22:42.235Z,24.25
2023-01-15T20:25:10.842Z,23.17
2023-01-15T20:27:41.157Z,22.48
2023-01-15T20:30:16.605Z,22.90
2023-01-15T20:32:46.274Z,23.48
2023-01-15T20:35:16.354Z,23.63
2023-01-15T20:37:44.187Z,23.83
2023-01-15T20:40:18.455Z,24.58
2023-01-15T20:43:04.756Z,27.52
2023-01-15T20:45:32.501Z,31.75
2023-01-15T20:48:13.119Z,26.00
2023-01-15T20:51:05.836Z,24.45
2023-01-15T20:53:35.195Z,23.88
2023-01-15T20:56:03.781Z,24.80
2023-01-15T20:58:32.403Z,24.27
2023-01-15T21:01:06.665Z,23.67
2023-01-15T21:03:34.489Z,23.70
2023-01-15T21:06:04.757Z,25.17
2023-01-15T21:08:33.760Z,25.60
2023-01-15T21:11:01.530Z,26.67
2023-01-15T21:13:29.216Z,28.13
2023-01-15T21:15:58.279Z,25.25
2023-01-15T21:18:26.513Z,24.48
2023-01-15T21:20:54.316Z,26.08
2023-01-15T21:23:22.388Z,24.58
2023-01-15T21:25:50.579Z,26.20
2023-01-15T21:28:18.414Z,26.10
2023-01-15T21:30:46.779Z,27.67
2023-01-15T21:33:18.075Z,25.85
2023-01-15T21:35:46.669Z,26.23
2023-01-15T21:38:15.740Z,25.90
2023-01-15T21:40:45.688Z,26.83
2023-01-15T21:43:35.393Z,28.52
2023-01-15T21:46:06.600Z,30.13
2023-01-15T21:48:36.988Z,31.88
2023-01-15T21:51:10.762Z,31.55
2023-01-15T21:53:42.356Z,31.75
2023-01-15T21:56:10.729Z,31.40
2023-01-15T21:58:38.822Z,29.50
2023-01-15T22:01:13.588Z,29.27
2023-01-15T22:03:41.889Z,28.95
2023-01-15T22:06:10.932Z,27.38
2023-01-15T22:08:38.558Z,27.55
2023-01-15T22:11:08.223Z,28.55
2023-01-15T22:13:39.133Z,27.08
2023-01-15T22:16:20.933Z,27.38
2023-01-15T22:18:49.572Z,27.85
2023-01-15T22:21:17.598Z,28.05
2023-01-15T22:23:49.070Z,28.50
2023-01-15T22:26:20.605Z,27.90
2023-01-15T22:28:48.519Z,27.98
2023-01-15T22:31:17.922Z,27.35
2023-01-15T22:33:46.686Z,25.60
2023-01-15T22:36:14.817Z,27.67
2023-01-15T22:38:42.393Z,27.63
2023-01-15T22:41:09.986Z,26.65
2023-01-15T22:43:37.589Z,26.15
2023-01-15T22:46:09.063Z,26.30
2023-01-15T22:48:36.712Z,26.08
2023-01-15T22:51:04.581Z,26.17
2023-01-15T22:53:32.168Z,25.40
2023-01-15T22:56:00.190Z,25.23
2023-01-15T22:58:27.811Z,25.27
2023-01-15T23:00:55.977Z,24.98
2023-01-15T23:03:24.040Z,26.55
2023-01-15T23:05:51.645Z,25.15
2023-01-15T23:08:19.366Z,24.83
2023-01-15T23:10:47.545Z,25.88
2023-01-15T23:13:15.165Z,25.27
2023-01-15T23:15:42.874Z,25.67
2023-01-15T23:18:10.692Z,25.75
2023-01-15T23:20:38.274Z,25.92
2023-01-15T23:23:05.943Z,27.58
2023-01-15T23:25:33.537Z,28.92
2023-01-15T23:28:01.166Z,26.77
2023-01-15T23:30:28.796Z,24.55
2023-01-15T23:32:57.525Z,25.23
2023-01-15T23:35:25.181Z,22.85
2023-01-15T23:37:52.738Z,23.00
2023-01-15T23:40:20.364Z,22.33
2023-01-15T23:43:06.836Z,21.98
2023-01-15T23:45:54.912Z,21.27
2023-01-15T23:48:22.608Z,20.77
2023-01-15T23:50:50.255Z,20.45
2023-01-15T23:53:17.842Z,20.52
2023-01-15T23:55:45.445Z,18.00
2023-01-15T23:58:13.031Z,18.95
